Time;durP1;ratioP1;P1;durP2;ratioP2;P2;SDS_P1;SDS_P2;PMS_P1;PMS_P2;Temp;Humidity;BMP_temperature;BMP_pressure;BME280_temperature;BME280_humidity;BME280_pressure;Samples;Min_cycle;Max_cycle;Signal;HPM_P1;HPM_P2
2022/02/05 00:01:52;;;;;;;18.23;2.38;;;;;;;5.40;100.00;101344.91;5070835;28;20433;-42
2022/02/05 00:04:21;;;;;;;15.63;2.25;;;;;;;5.41;100.00;101357.66;5071976;28;20048;-31
2022/02/05 00:06:53;;;;;;;11.63;2.20;;;;;;;5.43;100.00;101353.53;5071693;28;20438;-39
2022/02/05 00:09:35;;;;;;;15.55;2.65;;;;;;;5.43;100.00;101374.84;5071957;28;20044;-39
2022/02/05 00:12:22;;;;;;;18.33;2.97;;;;;;;5.42;100.00;101368.47;5071872;28;20456;-37
2022/02/05 00:33:02;;;;;;;10.45;2.17;;;;;;;5.43;100.00;101372.91;5071807;28;20065;-39
2022/02/05 00:40:03;;;;;;;13.88;2.55;;;;;;;5.44;100.00;101396.72;5071171;28;20040;-32
2022/02/05 00:42:37;;;;;;;16.98;2.85;;;;;;;5.43;100.00;101403.34;5061925;28;20044;-35
2022/02/05 00:45:08;;;;;;;15.77;2.55;;;;;;;5.44;100.00;101406.97;5071637;28;20051;-44
2022/02/05 00:47:40;;;;;;;16.13;2.72;;;;;;;5.44;100.00;101410.56;5071378;28;20049;-32
2022/02/05 00:50:15;;;;;;;14.23;2.58;;;;;;;5.45;100.00;101408.63;5067130;28;20481;-29
2022/02/05 00:52:48;;;;;;;18.92;2.60;;;;;;;5.48;100.00;101421.97;5071208;28;20484;-38
2022/02/05 00:55:23;;;;;;;15.48;2.60;;;;;;;5.48;100.00;101416.44;5051563;28;20048;-38
2022/02/05 00:57:51;;;;;;;17.73;2.63;;;;;;;5.47;100.00;101414.78;5060597;28;20048;-39
2022/02/05 01:00:20;;;;;;;13.10;2.30;;;;;;;5.48;100.00;101421.97;5069709;28;20041;-41
2022/02/05 01:02:48;;;;;;;14.52;2.08;;;;;;;5.46;100.00;101419.47;5071139;28;20056;-40
2022/02/05 01:05:17;;;;;;;18.75;2.85;;;;;;;5.48;100.00;101428.34;5069911;28;20036;-37
2022/02/05 01:07:45;;;;;;;16.90;3.05;;;;;;;5.47;100.00;101443.28;5071412;28;20382;-40
2022/02/05 01:10:14;;;;;;;17.92;2.50;;;;;;;5.46;100.00;101443.53;5070339;28;20048;-42
2022/02/05 01:12:49;;;;;;;14.13;2.08;;;;;;;5.44;100.00;101440.19;5071113;28;20055;-38
2022/02/05 01:15:20;;;;;;;14.38;2.22;;;;;;;5.43;100.00;101447.63;5071069;28;20058;-43
2022/02/05 01:17:53;;;;;;;17.55;2.60;;;;;;;5.42;100.00;101445.13;5070296;28;20385;-40
2022/02/05 01:20:38;;;;;;;15.15;2.33;;;;;;;5.41;100.00;101447.03;5071025;28;20032;-39
2022/02/05 01:23:10;;;;;;;13.98;2.47;;;;;;;5.41;100.00;101457.28;5070890;28;20052;-43
2022/02/05 01:25:42;;;;;;;14.55;2.75;;;;;;;5.40;100.00;101445.38;5070114;28;20056;-39
2022/02/05 01:28:15;;;;;;;19.55;2.53;;;;;;;5.40;100.00;101461.97;5069849;28;20470;-37
2022/02/05 01:30:47;;;;;;;14.75;2.13;;;;;;;5.39;100.00;101456.72;5070892;28;20059;-40
2022/02/05 01:33:36;;;;;;;20.35;2.67;;;;;;;5.37;100.00;101458.91;5070137;28;20040;-38
2022/02/05 01:36:22;;;;;;;13.93;1.98;;;;;;;5.34;100.00;101474.06;5074059;28;20041;-33
2022/02/05 01:53:03;;;;;;;15.93;2.95;;;;;;;5.30;100.00;101485.88;5045884;28;20597;-43
2022/02/05 01:55:39;;;;;;;17.33;2.60;;;;;;;5.28;100.00;101501.88;5074368;28;20094;-37
2022/02/05 01:58:17;;;;;;;13.00;2.20;;;;;;;5.28;100.00;101508.25;5074611;28;20044;-37
2022/02/05 02:06:29;;;;;;;15.48;2.67;;;;;;;5.30;100.00;101506.09;5074278;28;20049;-30
2022/02/05 02:11:46;;;;;;;12.88;2.08;;;;;;;5.32;100.00;101509.44;5074240;28;20508;-36
2022/02/05 02:17:55;;;;;;;16.17;2.42;;;;;;;5.31;100.00;101504.16;5068289;28;20288;-43
2022/02/05 02:20:29;;;;;;;12.73;2.30;;;;;;;5.30;100.00;101521.84;5072337;28;20048;-38
2022/02/05 02:23:13;;;;;;;15.85;2.70;;;;;;;5.27;100.00;101514.03;5073721;28;20051;-36
2022/02/05 02:25:54;;;;;;;14.48;2.25;;;;;;;5.28;100.00;101526.78;5067881;28;20410;-34
2022/02/05 02:28:28;;;;;;;11.18;1.92;;;;;;;5.25;100.00;101532.81;5069590;28;20047;-41
2022/02/05 02:31:03;;;;;;;17.08;2.58;;;;;;;5.23;100.00;101526.69;5063550;28;20045;-39
2022/02/05 02:33:34;;;;;;;16.92;2.50;;;;;;;5.22;100.00;101527.75;5073862;28;20076;-34
2022/02/05 02:36:03;;;;;;;15.23;2.35;;;;;;;5.22;100.00;101520.31;5062622;28;20056;-40
2022/02/05 02:38:40;;;;;;;15.27;2.50;;;;;;;5.22;100.00;101523.06;5073382;28;20098;-36
2022/02/05 02:41:14;;;;;;;19.35;2.65;;;;;;;5.20;100.00;101547.38;5073500;28;20481;-40
2022/02/05 02:43:42;;;;;;;18.67;2.85;;;;;;;5.18;100.00;101517.22;5073062;28;20104;-42
2022/02/05 02:46:10;;;;;;;19.52;2.80;;;;;;;5.20;100.00;101547.38;5072807;28;20041;-37
2022/02/05 02:48:43;;;;;;;14.93;2.22;;;;;;;5.22;100.00;101560.97;5073486;28;20040;-42
2022/02/05 02:56:52;;;;;;;11.10;2.30;;;;;;;5.18;100.00;101550.41;5062013;28;20051;-36
2022/02/05 02:59:25;;;;;;;17.17;2.47;;;;;;;5.20;100.00;101553.75;5072872;28;20053;-40
2022/02/05 03:01:59;;;;;;;;;;;;;;;5.17;100.00;101565.34;5062502;28;20405;-39
2022/02/05 03:04:27;;;;;;;15.70;2.30;;;;;;;5.17;100.00;101564.50;5071736;28;19925;-39
2022/02/05 03:06:55;;;;;;;16.02;2.50;;;;;;;5.19;100.00;101571.47;5073330;28;20048;-35
2022/02/05 03:09:24;;;;;;;18.30;2.28;;;;;;;5.23;100.00;101576.47;5072995;28;20053;-42
2022/02/05 03:11:52;;;;;;;16.88;2.40;;;;;;;5.23;100.00;101573.72;5072531;28;20044;-38
2022/02/05 03:14:20;;;;;;;15.43;1.85;;;;;;;5.21;100.00;101585.03;5072944;28;20041;-40
2022/02/05 03:16:51;;;;;;;10.57;1.88;;;;;;;5.20;100.00;101580.56;5071330;28;20143;-37
2022/02/05 03:19:19;;;;;;;11.68;2.03;;;;;;;5.22;100.00;101583.09;5073074;28;20036;-37
2022/02/05 03:21:47;;;;;;;12.20;1.92;;;;;;;5.19;100.00;101590.00;5072652;28;20131;-39
2022/02/05 03:24:15;;;;;;;11.98;2.00;;;;;;;5.20;100.00;101597.19;5072171;28;20053;-37
2022/02/05 03:26:44;;;;;;;8.90;2.10;;;;;;;5.22;100.00;101596.94;5072555;28;20518;-32
2022/02/05 03:29:13;;;;;;;11.68;1.85;;;;;;;5.22;100.00;101594.16;5072748;28;20047;-36
2022/02/05 03:31:40;;;;;;;16.77;2.80;;;;;;;5.23;100.00;101601.38;5071935;28;20041;-38
2022/02/05 03:34:08;;;;;;;13.98;2.10;;;;;;;5.22;100.00;101602.47;5072784;28;20052;-40
2022/02/05 03:36:39;;;;;;;14.55;2.15;;;;;;;5.22;100.00;101578.41;5072703;28;20459;-37
2022/02/05 03:39:07;;;;;;;14.85;2.83;;;;;;;5.23;100.00;101601.38;5071632;28;20418;-37
2022/02/05 03:41:35;;;;;;;11.68;1.60;;;;;;;5.20;100.00;101600.78;5072233;28;20059;-34
2022/02/05 03:44:05;;;;;;;19.83;2.40;;;;;;;5.19;100.00;101607.44;5072430;28;20037;-39
2022/02/05 03:46:33;;;;;;;13.93;1.98;;;;;;;5.21;100.00;101615.47;5071755;28;20048;-39
2022/02/05 03:49:00;;;;;;;13.50;2.35;;;;;;;5.22;100.00;101610.78;5072497;28;20063;-30
2022/02/05 03:51:28;;;;;;;13.02;2.42;;;;;;;5.20;100.00;101606.31;5071949;28;20056;-40
2022/02/05 03:53:56;;;;;;;17.50;2.50;;;;;;;5.22;100.00;101621.84;5071356;28;20132;-36
2022/02/05 03:56:24;;;;;;;14.38;2.05;;;;;;;5.23;100.00;101618.81;5072142;28;20056;-33
2022/02/05 03:58:51;;;;;;;22.83;3.08;;;;;;;5.24;100.00;101622.44;5072366;28;20048;-36
2022/02/05 04:01:20;;;;;;;17.52;2.35;;;;;;;5.23;100.00;101627.13;5069940;28;20059;-40
2022/02/05 04:03:48;;;;;;;13.05;1.70;;;;;;;5.19;100.00;101631.50;5072082;28;20182;-36
2022/02/05 04:06:16;;;;;;;17.35;2.58;;;;;;;5.20;100.00;101636.75;5071169;28;20066;-34
2022/02/05 04:08:45;;;;;;;12.57;2.33;;;;;;;5.21;100.00;101637.59;5071996;28;20405;-43
2022/02/05 04:11:27;;;;;;;15.75;2.40;;;;;;;5.21;100.00;101648.66;5071900;28;20508;-33
2022/02/05 04:16:41;;;;;;;16.75;2.80;;;;;;;5.23;100.00;101652.03;5071692;28;20052;-35
2022/02/05 04:19:09;;;;;;;17.63;2.47;;;;;;;5.24;100.00;101650.94;5071826;28;20118;-38
2022/02/05 04:21:37;;;;;;;13.43;2.00;;;;;;;5.24;100.00;101652.88;5070906;28;20402;-33
2022/02/05 04:24:06;;;;;;;13.32;2.35;;;;;;;5.22;100.00;101655.03;5071900;28;20045;-38
2022/02/05 04:26:34;;;;;;;17.83;2.50;;;;;;;5.20;100.00;101663.56;5071640;28;20052;-36
2022/02/05 04:29:01;;;;;;;15.73;2.70;;;;;;;5.20;100.00;101661.66;5070692;28;20056;-35
2022/02/05 04:31:30;;;;;;;11.13;2.00;;;;;;;5.21;100.00;101670.78;5069997;28;20417;-35
2022/02/05 04:33:59;;;;;;;14.88;2.15;;;;;;;5.19;100.00;101657.22;5071340;28;20450;-36
2022/02/05 04:36:27;;;;;;;14.27;2.38;;;;;;;5.17;100.00;101664.94;5070514;28;20052;-36
2022/02/05 04:38:59;;;;;;;15.48;2.33;;;;;;;5.16;100.00;101662.41;5071519;28;20048;-35
2022/02/05 04:41:34;;;;;;;18.20;2.30;;;;;;;5.12;100.00;101675.88;5070530;28;20044;-40
2022/02/05 04:44:15;;;;;;;13.60;2.65;;;;;;;5.12;100.00;101681.41;5071305;28;20051;-38
2022/02/05 04:47:00;;;;;;;15.77;2.40;;;;;;;5.11;100.00;101671.44;5062813;28;20049;-35
2022/02/05 04:50:08;;;;;;;14.55;2.42;;;;;;;5.09;100.00;101678.28;5070335;28;20512;-43
2022/02/05 04:58:36;;;;;;;13.13;2.08;;;;;;;4.98;100.00;101693.81;5069468;28;20036;-36
2022/02/05 05:01:14;;;;;;;15.10;2.20;;;;;;;4.98;100.00;101698.53;5070590;28;20067;-41
2022/02/05 05:09:17;;;;;;;11.27;1.95;;;;;;;4.98;100.00;101701.28;5059720;28;20436;-36
2022/02/05 05:11:52;;;;;;;17.33;2.15;;;;;;;4.97;100.00;101703.22;5070777;28;20455;-36
2022/02/05 05:19:51;;;;;;;20.52;3.47;;;;;;;4.97;100.00;101705.97;5070877;28;20049;-39
2022/02/05 05:22:20;;;;;;;13.30;2.10;;;;;;;4.99;100.00;101698.28;5070619;28;20483;-34
2022/02/05 05:24:48;;;;;;;13.80;2.40;;;;;;;4.99;100.00;101694.66;5070070;28;20056;-33
2022/02/05 05:27:15;;;;;;;16.83;2.25;;;;;;;4.99;100.00;101695.50;5070918;28;20052;-36
2022/02/05 05:29:43;;;;;;;20.75;2.97;;;;;;;5.03;100.00;101704.13;5070691;28;20413;-37
2022/02/05 05:32:11;;;;;;;15.80;2.10;;;;;;;5.07;100.00;101708.97;5069906;28;20049;-32
2022/02/05 05:34:39;;;;;;;13.55;2.13;;;;;;;5.07;100.00;101700.66;5070801;28;20045;-37
2022/02/05 05:37:06;;;;;;;17.73;2.47;;;;;;;5.06;100.00;101707.28;5070967;28;20543;-36
2022/02/05 05:39:38;;;;;;;21.02;2.55;;;;;;;5.05;100.00;101710.28;5069724;28;20041;-38
2022/02/05 05:42:11;;;;;;;15.10;2.22;;;;;;;5.03;100.00;101702.22;5070736;28;20048;-38
2022/02/05 05:45:03;;;;;;;15.13;2.10;;;;;;;5.01;100.00;101704.38;5069496;28;20040;-38
2022/02/05 05:47:37;;;;;;;17.10;2.35;;;;;;;4.99;100.00;101698.28;5070846;28;20490;-36
2022/02/05 05:50:35;;;;;;;14.75;2.53;;;;;;;4.97;100.00;101703.22;5070597;28;20044;-39
2022/02/05 05:52:58;;;;;;;16.48;2.40;;;;;;;4.95;100.00;101708.13;5061912;28;20059;-38
2022/02/05 05:55:29;;;;;;;11.75;2.50;;;;;;;4.96;100.00;101700.69;5070454;28;20045;-41
2022/02/05 05:57:57;;;;;;;17.23;3.38;;;;;;;4.96;100.00;101706.22;5070756;28;20044;-39
2022/02/05 06:00:25;;;;;;;15.90;3.08;;;;;;;4.96;100.00;101698.75;5069535;28;20061;-40
2022/02/05 06:02:53;;;;;;;16.73;2.38;;;;;;;4.98;100.00;101701.28;5058015;28;20059;-36
2022/02/05 06:05:21;;;;;;;19.48;2.42;;;;;;;4.98;100.00;101713.19;5069874;28;20047;-39
2022/02/05 06:07:48;;;;;;;19.88;2.45;;;;;;;5.01;100.00;101714.59;5070121;28;20128;-37
2022/02/05 06:10:16;;;;;;;15.55;2.63;;;;;;;5.02;100.00;101717.13;5070279;28;20127;-41
2022/02/05 06:12:45;;;;;;;18.05;2.05;;;;;;;5.03;100.00;101707.75;5069225;28;20044;-32
2022/02/05 06:15:13;;;;;;;19.10;2.90;;;;;;;5.05;100.00;101707.50;5068847;28;20139;-38
2022/02/05 06:17:41;;;;;;;16.58;2.95;;;;;;;5.06;100.00;101707.28;5068873;28;20037;-39
2022/02/05 06:20:09;;;;;;;13.80;2.25;;;;;;;5.05;100.00;101693.69;5068169;28;20469;-43
2022/02/05 06:22:37;;;;;;;17.98;2.97;;;;;;;5.04;100.00;101698.38;5071497;28;20061;-37
2022/02/05 06:25:08;;;;;;;16.90;2.80;;;;;;;5.03;100.00;101699.44;5072545;28;20044;-35
2022/02/05 06:27:35;;;;;;;17.95;2.35;;;;;;;5.02;100.00;101700.53;5072041;28;20044;-36
2022/02/05 06:30:06;;;;;;;13.27;2.58;;;;;;;5.02;100.00;101700.53;5072610;28;20409;-34
2022/02/05 06:32:34;;;;;;;15.45;2.58;;;;;;;5.02;100.00;101706.06;5072653;28;20048;-42
2022/02/05 06:35:02;;;;;;;21.48;3.10;;;;;;;5.04;100.00;101712.19;5070663;28;20063;-36
2022/02/05 06:37:29;;;;;;;14.07;2.35;;;;;;;5.05;100.00;101711.13;5072449;28;20135;-37
2022/02/05 06:39:57;;;;;;;19.65;2.75;;;;;;;5.08;100.00;101709.78;5072548;28;20051;-38
2022/02/05 06:42:25;;;;;;;18.52;2.50;;;;;;;5.11;100.00;101726.75;5071499;28;20040;-37
2022/02/05 06:44:53;;;;;;;18.55;2.72;;;;;;;5.12;100.00;101724.84;5072349;28;20428;-39
2022/02/05 06:47:22;;;;;;;15.95;2.63;;;;;;;5.09;100.00;101723.38;5072199;28;20059;-42
2022/02/05 06:49:50;;;;;;;19.10;3.30;;;;;;;5.08;100.00;101723.63;5071462;28;20052;-36
2022/02/05 06:52:17;;;;;;;18.60;2.80;;;;;;;5.08;100.00;101726.41;5071992;28;20447;-33
2022/02/05 06:54:45;;;;;;;20.17;3.05;;;;;;;5.09;100.00;101734.44;5070614;28;20421;-35
2022/02/05 06:57:13;;;;;;;16.00;2.58;;;;;;;5.08;100.00;101732.78;5071275;28;20044;-33
2022/02/05 06:59:40;;;;;;;17.75;2.63;;;;;;;5.07;100.00;101739.38;5071814;28;20413;-41
2022/02/05 07:02:08;;;;;;;14.15;2.60;;;;;;;5.06;100.00;101748.75;5069337;28;20056;-36
2022/02/05 07:04:37;;;;;;;15.48;2.60;;;;;;;5.05;100.00;101744.31;5071587;28;20054;-43
2022/02/05 07:07:05;;;;;;;17.23;2.60;;;;;;;5.04;100.00;101744.56;5071014;28;20151;-36
2022/02/05 07:09:33;;;;;;;14.18;2.65;;;;;;;5.02;100.00;101741.19;5070469;28;20120;-39
2022/02/05 07:12:01;;;;;;;17.58;2.63;;;;;;;5.00;100.00;101749.72;5071124;28;20059;-35
2022/02/05 07:14:34;;;;;;;19.25;2.60;;;;;;;4.97;100.00;101755.75;5070071;28;20140;-35
2022/02/05 07:17:09;;;;;;;15.77;2.78;;;;;;;4.98;100.00;101767.66;5069526;28;20057;-36
2022/02/05 07:19:54;;;;;;;18.35;2.88;;;;;;;4.94;100.00;101764.53;5071435;28;20048;-33
2022/02/05 07:22:23;;;;;;;16.27;2.47;;;;;;;4.93;100.00;101762.84;5072547;28;20049;-34
2022/02/05 07:25:02;;;;;;;19.13;3.15;;;;;;;4.93;100.00;101776.66;5071778;28;20147;-33
2022/02/05 07:30:15;;;;;;;13.95;2.42;;;;;;;4.91;100.00;101762.25;5071950;28;20048;-34
2022/02/05 07:32:53;;;;;;;17.67;2.65;;;;;;;4.93;100.00;101756.47;5072206;28;20128;-36
2022/02/05 07:35:23;;;;;;;16.42;2.30;;;;;;;4.93;100.00;101746.25;5072445;28;20044;-38
2022/02/05 07:37:53;;;;;;;16.58;2.65;;;;;;;4.94;100.00;101747.94;5071134;28;20063;-37
2022/02/05 07:40:21;;;;;;;20.08;2.92;;;;;;;4.97;100.00;101755.75;5072067;28;20135;-40
2022/02/05 07:42:49;;;;;;;22.70;2.90;;;;;;;5.02;100.00;101752.25;5072042;28;20048;-36
2022/02/05 07:45:17;;;;;;;17.77;2.83;;;;;;;5.05;100.00;101760.06;5071131;28;20064;-37
2022/02/05 07:47:45;;;;;;;17.15;3.15;;;;;;;5.07;100.00;101755.97;5072309;28;20058;-40
2022/02/05 07:50:12;;;;;;;15.95;2.50;;;;;;;5.11;100.00;101764.66;5072135;28;20048;-35
2022/02/05 07:52:41;;;;;;;13.50;2.60;;;;;;;5.14;100.00;101770.53;5071389;28;20048;-37
2022/02/05 07:55:10;;;;;;;18.95;2.40;;;;;;;5.13;100.00;101781.84;5071642;28;20037;-35
2022/02/05 07:57:37;;;;;;;15.00;2.30;;;;;;;5.15;100.00;101788.00;5071716;28;20063;-39
2022/02/05 08:00:07;;;;;;;14.55;2.38;;;;;;;5.15;100.00;101779.69;5070463;28;20053;-38
2022/02/05 08:02:40;;;;;;;16.80;2.58;;;;;;;5.17;100.00;101783.06;5071895;28;20048;-34
2022/02/05 08:05:10;;;;;;;13.52;2.25;;;;;;;5.20;100.00;101775.09;5071202;28;20086;-28
2022/02/05 08:07:37;;;;;;;16.52;2.45;;;;;;;5.26;100.00;101780.75;5071410;28;20048;-38
2022/02/05 08:10:09;;;;;;;17.02;2.53;;;;;;;5.30;100.00;101790.25;5071610;28;20064;-37
2022/02/05 08:12:41;;;;;;;14.07;2.33;;;;;;;5.29;100.00;101789.41;5070750;28;20063;-37
2022/02/05 08:15:09;;;;;;;10.27;2.17;;;;;;;5.34;100.00;101797.00;5071546;28;20052;-36
2022/02/05 08:17:38;;;;;;;19.70;2.30;;;;;;;5.37;100.00;101811.22;5071952;28;20063;-42
2022/02/05 08:20:06;;;;;;;17.15;2.40;;;;;;;5.44;100.00;101794.44;5067171;28;20048;-41
2022/02/05 08:22:34;;;;;;;11.18;2.00;;;;;;;5.52;100.00;101813.47;5060735;28;20052;-35
2022/02/05 08:25:02;;;;;;;16.33;2.50;;;;;;;5.59;100.00;101811.44;5071137;28;20052;-34
2022/02/05 08:27:31;;;;;;;15.98;1.95;;;;;;;5.66;100.00;101803.81;5070503;28;20080;-36
2022/02/05 08:30:04;;;;;;;23.10;2.70;;;;;;;5.77;100.00;101825.13;5071010;28;20575;-33
2022/02/05 08:32:32;;;;;;;16.00;2.30;;;;;;;5.86;100.00;101833.88;5068843;28;20045;-35
2022/02/05 08:35:00;;;;;;;13.80;2.00;;;;;;;5.89;100.00;101830.66;5070191;28;20447;-38
2022/02/05 08:37:29;;;;;;;24.02;3.13;;;;;;;5.95;100.00;101826.06;5070027;28;20102;-38
2022/02/05 08:39:58;;;;;;;18.90;2.72;;;;;;;5.99;100.00;101816.19;5071353;28;20049;-34
2022/02/05 08:42:26;;;;;;;19.63;2.58;;;;;;;6.01;100.00;101811.22;5070174;28;20054;-39
2022/02/05 08:44:55;;;;;;;13.65;2.53;;;;;;;6.07;100.00;101805.53;5070433;28;20052;-36
2022/02/05 08:47:24;;;;;;;17.48;2.45;;;;;;;6.16;100.00;101817.94;5070689;28;20052;-38
2022/02/05 08:49:53;;;;;;;18.30;2.92;;;;;;;6.34;100.00;101807.75;5070876;28;20123;-37
2022/02/05 08:52:21;;;;;;;13.77;2.00;;;;;;;6.48;100.00;101812.72;5071305;28;20052;-41
2022/02/05 08:54:49;;;;;;;16.65;2.42;;;;;;;6.52;100.00;101811.13;5068781;28;20052;-35
2022/02/05 08:57:16;;;;;;;15.95;2.47;;;;;;;6.51;100.00;101809.47;5071176;28;20040;-33
2022/02/05 08:59:52;;;;;;;16.48;2.70;;;;;;;6.52;100.00;101805.59;5070883;28;20078;-30
2022/02/05 09:02:28;;;;;;;15.75;2.30;;;;;;;6.53;100.00;101806.44;5070077;28;20044;-35
2022/02/05 09:05:09;;;;;;;13.55;2.22;;;;;;;6.51;100.00;101812.22;5070633;28;20037;-39
2022/02/05 09:07:40;;;;;;;15.15;2.17;;;;;;;6.47;100.00;101811.03;5071039;28;20045;-35
2022/02/05 09:10:13;;;;;;;13.98;2.67;;;;;;;6.45;100.00;101809.59;5069941;28;20107;-34
2022/02/05 09:13:07;;;;;;;15.38;2.20;;;;;;;6.55;100.00;101805.09;5070884;28;20048;-36
2022/02/05 09:15:33;;;;;;;13.43;2.28;;;;;;;6.68;100.00;101809.47;5069757;28;20527;-38
2022/02/05 09:18:03;;;;;;;10.27;2.00;;;;;;;6.74;100.00;101818.75;5070735;28;20139;-34
2022/02/05 09:20:31;;;;;;;16.73;2.42;;;;;;;6.86;100.00;101800.06;5070902;28;20041;-40
2022/02/05 09:23:01;;;;;;;15.77;2.20;;;;;;;7.07;100.00;101801.25;5069437;28;20064;-41
2022/02/05 09:25:29;;;;;;;11.82;1.85;;;;;;;7.32;100.00;101809.16;5070327;28;20388;-44
2022/02/05 09:27:57;;;;;;;19.90;2.58;;;;;;;7.59;100.00;101816.50;5070839;28;20048;-43
2022/02/05 09:30:43;;;;;;;14.18;2.53;;;;;;;7.80;100.00;101798.16;5069079;28;20045;-42
2022/02/05 09:33:12;;;;;;;14.10;1.90;;;;;;;7.99;100.00;101807.03;5061879;28;20050;-40
2022/02/05 09:35:40;;;;;;;18.75;2.50;;;;;;;8.03;100.00;101796.22;5070530;28;20044;-35
2022/02/05 09:38:08;;;;;;;14.73;2.28;;;;;;;8.19;100.00;101801.69;5070038;28;20146;-36
2022/02/05 09:40:36;;;;;;;12.20;1.77;;;;;;;8.46;100.00;101809.25;5070698;28;20045;-33
2022/02/05 09:43:03;;;;;;;12.32;1.92;;;;;;;8.73;100.00;101810.09;5070426;28;20044;-40
2022/02/05 09:45:36;;;;;;;12.98;2.28;;;;;;;8.72;100.00;101802.88;5070014;28;20393;-37
2022/02/05 09:48:04;;;;;;;14.00;2.28;;;;;;;8.79;100.00;101808.22;5067484;28;20051;-34
2022/02/05 09:50:34;;;;;;;17.80;2.42;;;;;;;8.93;100.00;101804.72;5070948;28;20055;-36
2022/02/05 09:53:13;;;;;;;15.73;2.63;;;;;;;8.93;97.92;101803.88;5068668;28;20054;-36
2022/02/05 09:55:41;;;;;;;13.50;2.22;;;;;;;8.73;96.33;101798.97;5061174;28;20114;-36
2022/02/05 09:58:09;;;;;;;13.88;2.15;;;;;;;8.55;97.30;101799.38;5073285;28;20051;-40
2022/02/05 10:00:37;;;;;;;14.55;2.47;;;;;;;8.33;97.87;101791.06;5074339;28;20052;-37
2022/02/05 10:03:23;;;;;;;13.48;2.45;;;;;;;8.16;99.69;101791.13;5073568;28;20540;-39
2022/02/05 10:06:05;;;;;;;13.98;2.65;;;;;;;7.98;100.00;101785.06;5072933;28;20049;-41
2022/02/05 10:08:35;;;;;;;15.20;2.35;;;;;;;7.78;100.00;101792.03;5073375;28;20048;-33
2022/02/05 10:11:05;;;;;;;14.05;2.50;;;;;;;7.66;100.00;101794.09;5074106;28;20068;-36
2022/02/05 10:13:33;;;;;;;12.93;2.45;;;;;;;7.67;100.00;101787.44;5072887;28;20524;-36
2022/02/05 10:16:01;;;;;;;13.63;2.40;;;;;;;7.76;100.00;101796.19;5074202;28;20041;-41
2022/02/05 10:18:31;;;;;;;18.67;2.67;;;;;;;7.84;100.00;101792.94;5073742;28;20527;-35
2022/02/05 10:21:00;;;;;;;19.05;2.78;;;;;;;7.85;100.00;101792.69;5073570;28;20043;-35
2022/02/05 10:23:31;;;;;;;16.33;2.63;;;;;;;7.90;100.00;101783.56;5073608;28;20041;-36
2022/02/05 10:25:59;;;;;;;15.63;2.55;;;;;;;7.87;100.00;101790.47;5072621;28;20400;-32
2022/02/05 10:28:28;;;;;;;17.60;3.00;;;;;;;7.83;100.00;101794.03;5072509;28;20086;-34
2022/02/05 10:30:55;;;;;;;22.73;3.17;;;;;;;7.75;100.00;101800.91;5073745;28;20135;-38
2022/02/05 10:33:28;;;;;;;14.90;3.08;;;;;;;7.72;100.00;101801.41;5073023;28;20135;-35
2022/02/05 10:36:02;;;;;;;17.48;2.75;;;;;;;7.72;100.00;101790.28;5073759;28;20051;-39
2022/02/05 10:44:14;;;;;;;14.57;2.67;;;;;;;8.23;100.00;101796.47;5073391;28;20090;-38
2022/02/05 10:46:45;;;;;;;19.38;2.67;;;;;;;8.41;100.00;101792.50;5073119;28;20094;-31
2022/02/05 10:49:34;;;;;;;12.77;2.58;;;;;;;8.61;99.33;101784.38;5072628;28;20054;-41
2022/02/05 10:52:02;;;;;;;11.35;2.35;;;;;;;8.73;99.59;101789.78;5073367;28;20157;-40
2022/02/05 10:54:40;;;;;;;15.55;2.30;;;;;;;8.73;98.47;101792.56;5072472;28;20048;-36
2022/02/05 10:57:14;;;;;;;17.08;3.22;;;;;;;8.62;98.66;101774.94;5072458;28;20052;-38
2022/02/05 11:00:10;;;;;;;13.63;2.53;;;;;;;8.55;100.00;101777.94;5073496;28;20044;-32
2022/02/05 11:05:35;;;;;;;10.65;2.08;;;;;;;8.66;99.67;101767.75;5072829;28;20041;-37
2022/02/05 11:08:03;;;;;;;15.57;3.05;;;;;;;8.58;95.83;101757.94;5061394;28;20098;-35
2022/02/05 11:13:22;;;;;;;15.38;2.45;;;;;;;8.84;98.24;101767.34;5073007;28;20045;-34
2022/02/05 11:18:54;;;;;;;13.38;2.58;;;;;;;9.32;96.06;101746.81;5073170;28;20056;-37
2022/02/05 11:21:44;;;;;;;14.77;3.13;;;;;;;9.43;94.59;101735.72;5063227;28;20037;-36
2022/02/05 11:24:13;;;;;;;11.15;2.20;;;;;;;9.43;92.93;101730.16;5071747;28;20052;-41
2022/02/05 11:26:44;;;;;;;12.27;2.17;;;;;;;9.32;92.85;101732.06;5072767;28;20059;-39
2022/02/05 11:29:28;;;;;;;12.57;2.05;;;;;;;9.18;92.91;101740.06;5072078;28;20851;-36
2022/02/05 11:32:20;;;;;;;11.95;2.28;;;;;;;9.13;93.56;101730.81;5061968;28;20051;-36
2022/02/05 11:35:01;;;;;;;18.15;2.50;;;;;;;9.13;94.05;101728.88;5072341;28;20148;-35
2022/02/05 11:37:28;;;;;;;17.38;2.65;;;;;;;9.10;94.17;101726.63;5071852;28;20520;-38
2022/02/05 11:39:56;;;;;;;16.92;2.53;;;;;;;9.10;94.02;101725.78;5072516;28;20049;-42
2022/02/05 11:42:28;;;;;;;18.40;3.08;;;;;;;9.08;94.99;101711.28;5072481;28;20044;-38
2022/02/05 11:44:57;;;;;;;13.67;2.40;;;;;;;8.95;93.90;101709.81;5071377;28;20045;-36
2022/02/05 11:47:31;;;;;;;12.13;2.30;;;;;;;8.82;94.55;101711.09;5061616;28;20342;-35
2022/02/05 11:50:33;;;;;;;11.73;2.25;;;;;;;8.60;92.86;101705.63;5072375;28;20039;-36
2022/02/05 11:53:08;;;;;;;11.30;2.17;;;;;;;8.60;95.52;101705.63;5063827;28;20062;-40
2022/02/05 11:55:42;;;;;;;14.85;2.33;;;;;;;8.64;94.93;101714.28;5072317;28;20059;-37
2022/02/05 11:58:13;;;;;;;16.58;2.50;;;;;;;8.73;96.41;101701.59;5071722;28;20044;-39
2022/02/05 12:00:48;;;;;;;18.08;2.80;;;;;;;8.60;94.79;101713.97;5071727;28;20051;-40
2022/02/05 12:03:19;;;;;;;11.68;2.38;;;;;;;8.62;95.89;101703.44;5071852;28;20452;-38
2022/02/05 12:05:53;;;;;;;18.98;2.53;;;;;;;8.72;96.15;101686.00;5070802;28;20449;-35
2022/02/05 12:08:24;;;;;;;19.33;2.50;;;;;;;8.57;95.57;101686.72;5072014;28;20377;-39
2022/02/05 12:10:56;;;;;;;17.65;2.70;;;;;;;8.56;96.79;101689.78;5072000;28;20426;-33
2022/02/05 12:13:28;;;;;;;18.52;3.00;;;;;;;8.53;96.46;101666.09;5071052;28;20063;-38
2022/02/05 12:16:19;;;;;;;22.55;2.90;;;;;;;8.45;97.84;101651.81;5071887;28;20063;-37
2022/02/05 12:19:09;;;;;;;16.25;2.47;;;;;;;8.40;98.45;101672.09;5062399;28;20051;-31
2022/02/05 12:21:51;;;;;;;17.67;2.47;;;;;;;8.46;98.63;101681.31;5071788;28;20052;-37
2022/02/05 12:24:36;;;;;;;22.25;3.63;;;;;;;8.41;99.27;101653.47;5071540;28;20137;-38
2022/02/05 12:27:32;;;;;;;19.98;2.92;;;;;;;8.38;99.20;101651.22;5071110;28;20472;-39
2022/02/05 12:30:37;;;;;;;20.00;3.05;;;;;;;8.16;99.61;101659.63;5071543;28;20409;-39
2022/02/05 12:33:09;;;;;;;17.20;2.60;;;;;;;8.06;100.00;101653.94;5070566;28;20413;-35
2022/02/05 12:35:38;;;;;;;17.38;2.70;;;;;;;8.00;100.00;101650.28;5071774;28;20136;-36
2022/02/05 12:38:08;;;;;;;15.45;2.60;;;;;;;8.03;100.00;101632.22;5071155;28;20049;-37
2022/02/05 12:40:43;;;;;;;18.42;2.92;;;;;;;8.05;100.00;101635.59;5070761;28;20049;-38
2022/02/05 12:43:13;;;;;;;22.10;3.60;;;;;;;8.05;100.00;101633.66;5071209;28;20140;-41
2022/02/05 12:45:50;;;;;;;16.38;2.60;;;;;;;8.05;100.00;101642.00;5071538;28;20044;-35
2022/02/05 12:48:22;;;;;;;16.10;2.70;;;;;;;7.97;100.00;101625.81;5070720;28;20036;-38
2022/02/05 12:50:50;;;;;;;12.60;2.58;;;;;;;8.03;100.00;101623.91;5071346;28;20114;-35
2022/02/05 12:53:18;;;;;;;17.90;2.50;;;;;;;8.07;100.00;101616.72;5071239;28;20036;-35
2022/02/05 12:55:47;;;;;;;21.95;3.60;;;;;;;8.00;100.00;101610.53;5070570;28;20056;-38
2022/02/05 12:58:19;;;;;;;18.77;2.70;;;;;;;7.89;100.00;101616.00;5071086;28;20050;-32
2022/02/05 13:01:05;;;;;;;17.52;3.00;;;;;;;7.80;100.00;101623.13;5070159;28;20049;-40
2022/02/05 13:03:35;;;;;;;17.02;2.75;;;;;;;7.71;100.00;101608.03;5071176;28;20112;-38
2022/02/05 13:06:16;;;;;;;21.75;3.55;;;;;;;7.67;100.00;101606.88;5070889;28;20044;-41
2022/02/05 13:08:46;;;;;;;17.00;2.60;;;;;;;7.64;100.00;101601.84;5070500;28;20060;-38
2022/02/05 13:11:18;;;;;;;17.08;2.75;;;;;;;7.60;100.00;101603.47;5070822;28;20056;-38
2022/02/05 13:13:52;;;;;;;17.27;2.80;;;;;;;7.50;100.00;101583.91;5070953;28;20429;-38